createdAt,value
2023-01-04T00:00:07.644Z,1.00
2023-01-04T00:02:35.156Z,1.10
2023-01-04T00:05:04.353Z,1.00
2023-01-04T00:07:31.817Z,1.10
2023-01-04T00:09:59.165Z,1.00
2023-01-04T00:12:26.518Z,1.13
2023-01-04T00:14:53.898Z,1.00
2023-01-04T00:17:21.229Z,0.87
2023-01-04T00:19:48.587Z,0.90
2023-01-04T00:22:17.232Z,1.00
2023-01-04T00:24:44.621Z,1.10
2023-01-04T00:27:11.941Z,1.10
2023-01-04T00:29:39.405Z,1.00
2023-01-04T00:32:06.781Z,1.03
2023-01-04T00:34:34.135Z,0.90
2023-01-04T00:37:01.517Z,1.10
2023-01-04T00:39:30.272Z,0.90
2023-01-04T00:42:05.050Z,1.10
2023-01-04T00:44:33.576Z,1.03
2023-01-04T00:47:01.762Z,0.93
2023-01-04T00:49:29.455Z,1.00
2023-01-04T00:51:57.429Z,1.00
2023-01-04T00:54:25.322Z,0.90
2023-01-04T00:56:54.335Z,0.90
2023-01-04T00:59:22.236Z,1.10
2023-01-04T01:01:49.741Z,1.00
2023-01-04T01:04:19.413Z,0.83
2023-01-04T01:06:46.811Z,0.80
2023-01-04T01:09:14.559Z,1.00
2023-01-04T01:11:42.144Z,0.80
2023-01-04T01:14:14.556Z,1.00
2023-01-04T01:16:55.064Z,0.90
2023-01-04T01:19:23.191Z,0.83
2023-01-04T01:21:50.645Z,0.90
2023-01-04T01:24:18.923Z,0.57
2023-01-04T01:26:46.331Z,0.97
2023-01-04T01:29:15.213Z,0.60
2023-01-04T01:31:42.716Z,0.90
2023-01-04T01:34:10.584Z,0.97
2023-01-04T01:36:38.405Z,0.63
2023-01-04T01:39:06.256Z,0.90
2023-01-04T01:41:34.720Z,0.63
2023-01-04T01:44:03.239Z,0.83
2023-01-04T01:46:36.119Z,0.80
2023-01-04T01:49:05.357Z,1.03
2023-01-04T01:51:33.925Z,1.00
2023-01-04T01:54:04.344Z,1.40
2023-01-04T01:56:32.738Z,0.87
2023-01-04T01:59:01.031Z,1.23
2023-01-04T02:01:28.735Z,0.70
2023-01-04T02:03:57.695Z,1.00
2023-01-04T02:06:26.648Z,0.83
2023-01-04T02:08:54.306Z,1.00
2023-01-04T02:11:21.793Z,1.03
2023-01-04T02:14:07.721Z,1.20
2023-01-04T02:16:40.955Z,0.80
2023-01-04T02:19:21.177Z,0.93
2023-01-04T02:21:57.431Z,1.30
2023-01-04T02:24:33.282Z,0.90
2023-01-04T02:27:11.161Z,1.20
2023-01-04T02:29:51.397Z,0.97
2023-01-04T02:32:23.538Z,1.00
2023-01-04T02:34:58.504Z,1.00
2023-01-04T02:37:30.559Z,0.90
2023-01-04T02:40:01.200Z,1.07
2023-01-04T02:42:47.118Z,0.80
2023-01-04T02:45:15.942Z,1.23
2023-01-04T02:48:02.106Z,1.10
2023-01-04T02:50:33.589Z,1.10
2023-01-04T02:53:02.231Z,1.00
2023-01-04T02:55:34.102Z,0.97
2023-01-04T02:58:04.374Z,1.47
2023-01-04T03:01:01.521Z,1.17
2023-01-04T03:03:53.971Z,0.97
2023-01-04T03:06:25.451Z,0.90
2023-01-04T03:08:57.394Z,0.70
2023-01-04T03:11:43.321Z,0.90
2023-01-04T03:14:32.188Z,1.00
2023-01-04T03:17:01.420Z,0.90
2023-01-04T03:19:49.666Z,0.97
2023-01-04T03:22:37.585Z,0.90
2023-01-04T03:25:23.386Z,1.30
2023-01-04T03:28:08.826Z,1.10
2023-01-04T03:30:57.649Z,1.10
2023-01-04T03:33:42.769Z,1.10
2023-01-04T03:36:19.288Z,1.03
2023-01-04T03:39:07.405Z,1.00
2023-01-04T03:41:55.711Z,0.77
2023-01-04T03:44:43.552Z,1.00
2023-01-04T03:47:31.406Z,1.10
2023-01-04T03:50:01.135Z,0.90
2023-01-04T03:52:31.420Z,1.10
2023-01-04T03:54:59.831Z,1.33
2023-01-04T03:57:27.323Z,1.03
2023-01-04T03:59:56.986Z,0.97
2023-01-04T04:02:24.887Z,1.17
2023-01-04T04:05:10.456Z,0.80
2023-01-04T04:07:57.207Z,0.90
2023-01-04T04:10:24.875Z,1.03
2023-01-04T04:12:55.243Z,1.13
2023-01-04T04:15:22.746Z,1.50
2023-01-04T04:17:50.263Z,1.20
2023-01-04T04:20:17.807Z,0.93
2023-01-04T04:22:46.484Z,1.00
2023-01-04T04:25:14.185Z,1.00
2023-01-04T04:27:41.684Z,0.90
2023-01-04T04:30:09.625Z,1.17
2023-01-04T04:32:37.352Z,1.30
2023-01-04T04:35:05.192Z,1.00
2023-01-04T04:37:34.103Z,1.37
2023-01-04T04:40:03.141Z,3.53
2023-01-04T04:42:29.710Z,8.80
2023-01-04T04:44:57.102Z,6.30
2023-01-04T04:47:24.905Z,5.60
2023-01-04T04:49:52.262Z,3.53
2023-01-04T04:52:19.697Z,1.37
2023-01-04T04:54:47.077Z,1.23
2023-01-04T04:57:15.716Z,1.13
2023-01-04T04:59:43.113Z,1.10
2023-01-04T05:02:10.551Z,1.00
2023-01-04T05:04:38.463Z,0.83
2023-01-04T05:07:12.025Z,0.67
2023-01-04T05:09:39.874Z,0.90
2023-01-04T05:12:24.999Z,0.90
2023-01-04T05:14:54.000Z,0.93
2023-01-04T05:17:21.349Z,0.80
2023-01-04T05:19:48.724Z,0.90
2023-01-04T05:22:16.067Z,0.90
2023-01-04T05:24:43.418Z,0.97
2023-01-04T05:27:10.989Z,0.80
2023-01-04T05:29:54.996Z,0.67
2023-01-04T05:32:23.874Z,0.80
2023-01-04T05:34:51.223Z,0.80
2023-01-04T05:37:18.591Z,0.90
2023-01-04T05:39:46.030Z,1.07
2023-01-04T05:42:28.735Z,0.80
2023-01-04T05:44:57.148Z,0.93
2023-01-04T05:47:26.538Z,0.63
2023-01-04T05:49:53.882Z,0.70
2023-01-04T05:52:21.283Z,0.70
2023-01-04T05:54:48.668Z,0.70
2023-01-04T05:57:16.272Z,0.80
2023-01-04T05:59:43.775Z,0.80
2023-01-04T06:02:14.850Z,0.80
2023-01-04T06:04:43.811Z,0.70
2023-01-04T06:07:11.157Z,0.80
2023-01-04T06:09:38.751Z,0.60
2023-01-04T06:12:06.332Z,0.70
2023-01-04T06:14:33.686Z,0.70
2023-01-04T06:17:01.053Z,0.77
2023-01-04T06:19:28.593Z,0.60
2023-01-04T06:21:57.640Z,0.77
2023-01-04T06:24:25.808Z,0.80
2023-01-04T06:26:53.800Z,0.70
2023-01-04T06:29:21.275Z,0.63
2023-01-04T06:31:48.614Z,0.67
2023-01-04T06:34:16.151Z,0.60
2023-01-04T06:36:44.092Z,0.87
2023-01-04T06:39:12.920Z,0.57
2023-01-04T06:41:40.345Z,0.80
2023-01-04T06:44:08.070Z,0.80
2023-01-04T06:46:35.437Z,0.80
2023-01-04T06:49:02.920Z,0.50
2023-01-04T06:51:30.281Z,0.50
2023-01-04T06:53:57.691Z,0.70
2023-01-04T06:56:26.378Z,2.33
2023-01-04T06:58:53.868Z,6.77
2023-01-04T07:01:21.261Z,4.13
2023-01-04T07:03:48.608Z,13.73
2023-01-04T07:06:15.971Z,4.13
2023-01-04T07:08:43.331Z,4.77
2023-01-04T07:11:10.666Z,1.37
2023-01-04T07:13:39.917Z,1.37
2023-01-04T07:16:07.602Z,1.10
2023-01-04T07:18:35.693Z,0.83
2023-01-04T07:21:03.058Z,1.20
2023-01-04T07:23:30.406Z,0.87
2023-01-04T07:26:01.356Z,3.50
2023-01-04T07:28:46.530Z,1.00
2023-01-04T07:31:15.280Z,0.80
2023-01-04T07:33:42.671Z,1.47
2023-01-04T07:36:10.086Z,2.13
2023-01-04T07:38:37.662Z,0.90
2023-01-04T07:41:05.835Z,0.60
2023-01-04T07:43:33.373Z,0.70
2023-01-04T07:46:00.843Z,0.60
2023-01-04T07:48:29.709Z,0.47
2023-01-04T07:50:57.476Z,0.53
2023-01-04T07:53:25.026Z,0.53
2023-01-04T07:55:55.898Z,0.57
2023-01-04T07:58:23.504Z,0.50
2023-01-04T08:00:51.285Z,0.43
2023-01-04T08:03:18.768Z,0.50
2023-01-04T08:05:48.041Z,0.40
2023-01-04T08:08:15.600Z,0.50
2023-01-04T08:10:42.988Z,0.53
2023-01-04T08:13:10.466Z,0.50
2023-01-04T08:15:37.868Z,0.37
2023-01-04T08:18:06.237Z,0.33
2023-01-04T08:20:33.761Z,0.40
2023-01-04T08:23:02.483Z,0.50
2023-01-04T08:25:29.852Z,0.40
2023-01-04T08:27:57.345Z,0.30
2023-01-04T08:30:25.156Z,0.30
2023-01-04T08:32:53.519Z,0.50
2023-01-04T08:35:20.938Z,0.40
2023-01-04T08:37:48.408Z,0.50
2023-01-04T08:40:17.427Z,0.60
2023-01-04T08:42:45.087Z,0.40
2023-01-04T08:45:12.576Z,0.30
2023-01-04T08:47:39.948Z,0.40
2023-01-04T08:50:10.718Z,0.30
2023-01-04T08:52:38.897Z,0.57
2023-01-04T08:55:12.693Z,0.33
2023-01-04T08:57:42.796Z,0.30
2023-01-04T09:00:11.199Z,0.50
2023-01-04T09:02:39.064Z,0.30
2023-01-04T09:05:07.163Z,0.37
2023-01-04T09:07:34.692Z,0.33
2023-01-04T09:10:02.136Z,0.43
2023-01-04T09:12:29.560Z,0.50
2023-01-04T09:14:58.620Z,0.30
2023-01-04T09:17:25.974Z,0.30
2023-01-04T09:19:53.341Z,0.40
2023-01-04T09:22:20.751Z,0.30
2023-01-04T09:24:48.181Z,0.40
2023-01-04T09:27:15.591Z,0.30
2023-01-04T09:29:43.527Z,0.77
2023-01-04T09:32:16.575Z,0.50
2023-01-04T09:34:45.688Z,0.20
2023-01-04T09:37:13.236Z,0.33
2023-01-04T09:39:40.621Z,0.30
2023-01-04T09:42:16.442Z,0.23
2023-01-04T09:47:36.528Z,0.20
2023-01-04T09:50:05.776Z,0.13
2023-01-04T09:52:39.772Z,0.33
2023-01-04T09:55:37.195Z,0.40
2023-01-04T09:57:59.790Z,0.70
2023-01-04T10:00:29.251Z,1.20
2023-01-04T10:03:00.173Z,0.50
2023-01-04T10:05:28.770Z,0.50
2023-01-04T10:07:56.586Z,0.30
2023-01-04T10:10:29.262Z,0.50
2023-01-04T10:13:02.906Z,0.30
2023-01-04T10:15:35.247Z,0.40
2023-01-04T10:19:23.957Z,0.30
2023-01-04T10:23:59.896Z,0.30
2023-01-04T10:26:29.927Z,0.43
2023-01-04T10:29:07.098Z,0.20
2023-01-04T10:31:41.787Z,0.40
2023-01-04T10:34:19.254Z,0.40
2023-01-04T10:36:47.425Z,0.30
2023-01-04T10:39:16.226Z,0.37
2023-01-04T10:41:45.382Z,0.30
2023-01-04T10:44:15.628Z,0.40
2023-01-04T10:46:46.107Z,0.50
2023-01-04T10:49:17.765Z,0.30
2023-01-04T10:51:49.602Z,0.30
2023-01-04T10:54:20.344Z,0.47
2023-01-04T10:56:51.321Z,0.50
2023-01-04T10:59:22.716Z,0.20
2023-01-04T11:01:52.445Z,0.63
2023-01-04T11:04:22.935Z,0.60
2023-01-04T11:06:54.351Z,0.40
2023-01-04T11:09:25.583Z,0.50
2023-01-04T11:11:54.456Z,0.50
2023-01-04T11:14:22.073Z,0.40
2023-01-04T11:16:51.023Z,0.50
2023-01-04T11:19:18.619Z,0.53
2023-01-04T11:21:49.724Z,0.40
2023-01-04T11:24:34.380Z,0.53
2023-01-04T11:27:05.194Z,0.80
2023-01-04T11:29:34.925Z,0.63
2023-01-04T11:32:04.232Z,0.60
2023-01-04T11:34:48.382Z,0.50
2023-01-04T11:37:29.609Z,0.60
2023-01-04T11:40:28.135Z,0.70
2023-01-04T11:43:11.761Z,0.60
2023-01-04T11:45:39.259Z,0.80
2023-01-04T11:48:12.593Z,0.70
2023-01-04T11:50:42.724Z,0.70
2023-01-04T11:53:30.769Z,0.70
2023-01-04T11:56:13.235Z,0.70
2023-01-04T11:58:42.598Z,0.40
2023-01-04T12:01:19.992Z,0.50
2023-01-04T12:03:47.391Z,0.60
2023-01-04T12:06:17.623Z,0.63
2023-01-04T12:08:45.022Z,0.60
2023-01-04T12:11:18.157Z,0.60
2023-01-04T12:13:46.826Z,0.60
2023-01-04T12:16:18.237Z,0.50
2023-01-04T12:18:46.505Z,0.63
2023-01-04T12:21:17.082Z,0.60
2023-01-04T12:23:44.540Z,0.50
2023-01-04T12:26:12.431Z,0.63
2023-01-04T12:28:40.912Z,0.60
2023-01-04T12:31:26.754Z,0.50
2023-01-04T12:33:57.302Z,0.50
2023-01-04T12:36:39.925Z,0.50
2023-01-04T12:39:22.828Z,0.57
2023-01-04T12:42:21.912Z,0.50
2023-01-04T12:45:15.690Z,0.53
2023-01-04T12:48:01.715Z,0.50
2023-01-04T12:50:32.071Z,0.50
2023-01-04T12:55:53.296Z,0.37
2023-01-04T12:59:15.283Z,0.50
2023-01-04T13:01:27.261Z,0.40
2023-01-04T13:04:02.507Z,0.40
2023-01-04T13:06:36.721Z,0.70
2023-01-04T13:09:04.133Z,0.50
2023-01-04T13:11:44.482Z,0.40
2023-01-04T13:14:15.022Z,0.40
2023-01-04T13:16:46.064Z,0.33
2023-01-04T13:19:16.746Z,0.50
2023-01-04T13:21:46.634Z,0.50
2023-01-04T13:24:20.463Z,0.37
2023-01-04T13:26:48.710Z,0.60
2023-01-04T13:29:17.883Z,0.40
2023-01-04T13:31:47.514Z,0.40
2023-01-04T13:34:20.134Z,0.47
2023-01-04T13:36:55.784Z,0.33
2023-01-04T13:39:23.615Z,0.20
2023-01-04T13:41:52.828Z,0.13
2023-01-04T13:44:44.143Z,0.50
2023-01-04T13:47:13.661Z,0.33
2023-01-04T13:49:41.414Z,0.30
2023-01-04T13:52:47.325Z,0.50
2023-01-04T13:55:12.124Z,0.20
2023-01-04T13:57:39.482Z,0.43
2023-01-04T14:00:08.183Z,0.40
2023-01-04T14:02:38.694Z,0.63
2023-01-04T14:05:06.305Z,0.40
2023-01-04T14:07:34.969Z,0.43
2023-01-04T14:10:02.390Z,0.30
2023-01-04T14:12:29.939Z,0.20
2023-01-04T14:14:58.385Z,0.23
2023-01-04T14:17:34.151Z,0.33
2023-01-04T14:20:02.073Z,0.30
2023-01-04T14:22:34.606Z,0.23
2023-01-04T14:25:23.293Z,0.43
2023-01-04T14:27:52.098Z,0.30
2023-01-04T14:30:25.756Z,0.27
2023-01-04T14:32:53.970Z,0.50
2023-01-04T14:35:21.809Z,0.40
2023-01-04T14:37:49.297Z,0.30
2023-01-04T14:40:23.473Z,0.43
2023-01-04T14:42:50.812Z,0.30
2023-01-04T14:45:18.496Z,0.40
2023-01-04T14:47:45.875Z,0.30
2023-01-04T14:50:13.932Z,0.30
2023-01-04T14:52:41.685Z,0.27
2023-01-04T14:55:10.852Z,0.40
2023-01-04T14:57:43.209Z,0.50
2023-01-04T15:00:18.914Z,0.37
2023-01-04T15:02:50.238Z,0.30
2023-01-04T15:05:19.915Z,0.30
2023-01-04T15:07:47.635Z,0.30
2023-01-04T15:10:20.178Z,0.50
2023-01-04T15:12:48.852Z,0.37
2023-01-04T15:15:16.430Z,0.20
2023-01-04T15:17:43.785Z,0.20
2023-01-04T15:20:11.427Z,0.53
2023-01-04T15:22:38.941Z,0.50
2023-01-04T15:25:06.908Z,0.20
2023-01-04T15:27:39.976Z,0.37
2023-01-04T15:30:11.399Z,0.43
2023-01-04T15:32:38.855Z,0.50
2023-01-04T15:35:06.832Z,0.30
2023-01-04T15:37:34.208Z,0.33
2023-01-04T15:40:03.265Z,0.60
2023-01-04T15:42:48.765Z,0.50
2023-01-04T15:45:17.626Z,0.50
2023-01-04T15:47:45.014Z,0.60
2023-01-04T15:50:12.399Z,0.47
2023-01-04T15:52:39.737Z,0.40
2023-01-04T15:55:07.333Z,0.30
2023-01-04T15:57:40.047Z,0.43
2023-01-04T16:00:09.819Z,0.60
2023-01-04T16:02:41.191Z,0.43
2023-01-04T16:05:09.006Z,0.20
2023-01-04T16:07:36.902Z,0.40
2023-01-04T16:10:04.430Z,0.30
2023-01-04T16:12:44.447Z,0.40
2023-01-04T16:15:13.382Z,0.20
2023-01-04T16:17:42.309Z,0.40
2023-01-04T16:20:10.681Z,1.27
2023-01-04T16:22:38.315Z,0.50
2023-01-04T16:25:10.755Z,0.40
2023-01-04T16:27:39.616Z,0.47
2023-01-04T16:30:09.531Z,0.40
2023-01-04T16:32:37.348Z,1.43
2023-01-04T16:35:06.354Z,2.10
2023-01-04T16:37:33.716Z,1.80
2023-01-04T16:40:09.372Z,1.23
2023-01-04T16:42:37.555Z,0.70
2023-01-04T16:45:05.354Z,0.70
2023-01-04T16:47:38.508Z,0.60
2023-01-04T16:50:08.123Z,1.27
2023-01-04T16:52:35.504Z,0.80
2023-01-04T16:55:02.945Z,0.40
2023-01-04T16:57:30.314Z,0.87
2023-01-04T16:59:58.070Z,1.13
2023-01-04T17:02:25.551Z,0.40
2023-01-04T17:04:56.936Z,0.60
2023-01-04T17:07:27.328Z,0.60
2023-01-04T17:09:55.046Z,0.50
2023-01-04T17:17:58.644Z,0.57
2023-01-04T17:20:28.176Z,1.60
2023-01-04T17:22:57.092Z,0.60
2023-01-04T17:25:24.832Z,0.70
2023-01-04T17:27:52.248Z,0.73
2023-01-04T17:30:19.618Z,0.43
2023-01-04T17:32:49.609Z,0.70
2023-01-04T17:35:19.529Z,1.93
2023-01-04T17:37:46.887Z,1.30
2023-01-04T17:40:22.454Z,1.30
2023-01-04T17:42:50.500Z,0.90
2023-01-04T17:45:17.880Z,0.40
2023-01-04T17:47:45.289Z,0.67
2023-01-04T17:50:12.709Z,0.30
2023-01-04T17:52:40.080Z,0.27
2023-01-04T17:55:08.227Z,0.70
2023-01-04T17:57:36.905Z,0.20
2023-01-04T18:00:04.807Z,0.30
2023-01-04T18:02:32.935Z,0.20
2023-01-04T18:05:02.867Z,0.50
2023-01-04T18:07:30.292Z,0.10
2023-01-04T18:09:57.707Z,0.10
2023-01-04T18:12:25.431Z,0.30
2023-01-04T18:14:54.151Z,0.20
2023-01-04T18:17:21.637Z,0.13
2023-01-04T18:19:49.401Z,0.10
2023-01-04T18:22:16.891Z,0.10
2023-01-04T18:24:44.261Z,0.00
2023-01-04T18:27:21.904Z,0.20
2023-01-04T18:29:49.891Z,0.00
2023-01-04T18:32:21.344Z,0.30
2023-01-04T18:34:48.833Z,0.20
2023-01-04T18:37:18.152Z,0.00
2023-01-04T18:39:45.658Z,0.10
2023-01-04T18:42:13.260Z,0.10
2023-01-04T18:44:46.044Z,0.10
2023-01-04T18:47:15.597Z,0.77
2023-01-04T18:49:44.568Z,1.23
2023-01-04T18:52:12.066Z,0.50
2023-01-04T18:54:39.418Z,1.90
2023-01-04T18:57:06.804Z,2.10
2023-01-04T18:59:34.287Z,3.80
2023-01-04T19:02:02.737Z,1.00
2023-01-04T19:04:31.566Z,1.40
2023-01-04T19:07:00.734Z,2.50
2023-01-04T19:09:28.109Z,2.10
2023-01-04T19:11:55.447Z,2.43
2023-01-04T19:14:23.427Z,2.93
2023-01-04T19:16:52.958Z,1.97
2023-01-04T19:19:20.557Z,1.17
2023-01-04T19:21:47.920Z,1.73
2023-01-04T19:24:16.723Z,0.93
2023-01-04T19:26:44.062Z,0.90
2023-01-04T19:29:11.488Z,0.90
2023-01-04T19:31:39.376Z,0.50
2023-01-04T19:34:08.758Z,0.30
2023-01-04T19:36:36.267Z,0.20
2023-01-04T19:39:06.232Z,0.30
2023-01-04T19:41:37.442Z,0.20
2023-01-04T19:44:06.050Z,0.10
2023-01-04T19:46:33.523Z,0.10
2023-01-04T19:49:01.013Z,0.20
2023-01-04T19:51:28.695Z,0.43
2023-01-04T19:53:56.420Z,0.10
2023-01-04T19:56:23.931Z,0.00
2023-01-04T19:58:52.663Z,0.00
2023-01-04T20:01:20.938Z,0.20
2023-01-04T20:03:48.946Z,0.10
2023-01-04T20:06:17.397Z,0.10
2023-01-04T20:08:44.792Z,0.10
2023-01-04T20:11:12.212Z,0.10
2023-01-04T20:13:40.451Z,0.10
2023-01-04T20:16:09.581Z,0.00
2023-01-04T20:18:37.928Z,0.10
2023-01-04T20:21:09.396Z,0.20
2023-01-04T20:23:37.699Z,0.10
2023-01-04T20:26:11.238Z,0.20
2023-01-04T20:28:41.752Z,0.20
2023-01-04T20:31:12.455Z,0.00
2023-01-04T20:33:40.217Z,0.10
2023-01-04T20:36:08.792Z,0.00
2023-01-04T20:38:40.489Z,0.30
2023-01-04T20:41:08.902Z,0.00
2023-01-04T20:43:37.089Z,0.10
2023-01-04T20:46:05.959Z,0.10
2023-01-04T20:48:34.723Z,0.10
2023-01-04T20:51:05.992Z,0.00
2023-01-04T20:53:33.400Z,0.03
2023-01-04T20:56:04.645Z,0.00
2023-01-04T20:58:32.010Z,0.10
2023-01-04T21:01:02.213Z,0.00
2023-01-04T21:03:29.727Z,0.10
2023-01-04T21:06:00.987Z,0.00
2023-01-04T21:08:28.847Z,0.00
2023-01-04T21:10:56.548Z,0.00
2023-01-04T21:13:24.021Z,0.00
2023-01-04T21:15:51.566Z,0.10
2023-01-04T21:18:19.093Z,0.00
2023-01-04T21:20:46.659Z,0.10
2023-01-04T21:23:16.310Z,0.10
2023-01-04T21:25:44.158Z,0.20
2023-01-04T21:28:12.078Z,0.00
2023-01-04T21:30:40.247Z,0.10
2023-01-04T21:33:10.378Z,0.20
2023-01-04T21:35:38.108Z,0.00
2023-01-04T21:38:06.050Z,0.10
2023-01-04T21:40:34.961Z,0.20
2023-01-04T21:43:02.356Z,0.20
2023-01-04T21:45:29.773Z,0.20
2023-01-04T21:47:57.570Z,0.17
2023-01-04T21:50:30.496Z,0.10
2023-01-04T21:52:57.951Z,0.20
2023-01-04T21:55:30.874Z,0.10
2023-01-04T21:58:02.711Z,0.10
2023-01-04T22:00:30.074Z,0.10
2023-01-04T22:02:57.502Z,0.07
2023-01-04T22:05:24.914Z,0.20
2023-01-04T22:07:52.532Z,0.20
2023-01-04T22:10:22.106Z,0.10
2023-01-04T22:12:50.337Z,0.00
2023-01-04T22:15:19.252Z,0.10
2023-01-04T22:17:46.599Z,0.00
2023-01-04T22:20:13.964Z,0.00
2023-01-04T22:22:41.793Z,0.17
2023-01-04T22:25:09.719Z,0.40
2023-01-04T22:27:37.200Z,0.20
2023-01-04T22:30:05.102Z,0.20
2023-01-04T22:32:34.094Z,0.00
2023-01-04T22:35:01.473Z,0.37
2023-01-04T22:37:28.923Z,0.20
2023-01-04T22:39:56.346Z,0.10
2023-01-04T22:42:23.668Z,0.10
2023-01-04T22:44:51.070Z,0.10
2023-01-04T22:47:18.460Z,0.33
2023-01-04T22:49:48.111Z,0.20
2023-01-04T22:52:15.447Z,0.20
2023-01-04T22:54:42.822Z,0.00
2023-01-04T22:57:10.204Z,0.23
2023-01-04T22:59:37.817Z,0.10
2023-01-04T23:02:05.218Z,0.30
2023-01-04T23:04:32.715Z,0.10
2023-01-04T23:07:01.384Z,0.20
2023-01-04T23:09:29.038Z,0.20
2023-01-04T23:11:57.128Z,0.10
2023-01-04T23:14:26.081Z,0.20
2023-01-04T23:16:53.523Z,0.10
2023-01-04T23:19:20.953Z,0.33
2023-01-04T23:21:48.278Z,0.30
2023-01-04T23:24:16.997Z,0.20
2023-01-04T23:26:44.953Z,0.10
2023-01-04T23:29:12.292Z,0.00
2023-01-04T23:31:39.744Z,0.13
2023-01-04T23:34:07.642Z,0.10
2023-01-04T23:36:38.433Z,0.10
2023-01-04T23:39:07.004Z,0.23
2023-01-04T23:41:45.629Z,0.17
2023-01-04T23:44:14.272Z,0.20
2023-01-04T23:46:41.888Z,0.30
2023-01-04T23:49:09.326Z,0.33
2023-01-04T23:51:37.042Z,0.27
2023-01-04T23:54:04.691Z,0.27
2023-01-04T23:56:32.446Z,0.20
2023-01-04T23:59:03.443Z,0.20
